sensor_id;sensor_type;location;lat;lon;timestamp;pressure;altitude;pressure_sealevel;temperature
73662;BMP280;61956;52.540;13.382;2023-04-01T00:01:44;93920.41;;;10.30
73662;BMP280;61956;52.540;13.382;2023-04-01T00:04:13;93631.84;;;10.29
73662;BMP280;61956;52.540;13.382;2023-04-01T00:06:42;93639.59;;;10.29
73662;BMP280;61956;52.540;13.382;2023-04-01T00:09:15;93626.31;;;10.27
73662;BMP280;61956;52.540;13.382;2023-04-01T00:11:44;93512.53;;;10.27
73662;BMP280;61956;52.540;13.382;2023-04-01T00:14:14;93770.06;;;10.28
73662;BMP280;61956;52.540;13.382;2023-04-01T00:16:43;94396.75;;;10.32
73662;BMP280;61956;52.540;13.382;2023-04-01T00:19:13;94247.84;;;10.31
73662;BMP280;61956;52.540;13.382;2023-04-01T00:21:43;94095.19;;;10.31
73662;BMP280;61956;52.540;13.382;2023-04-01T00:24:15;94488.03;;;10.32
73662;BMP280;61956;52.540;13.382;2023-04-01T00:26:44;94007.63;;;10.29
73662;BMP280;61956;52.540;13.382;2023-04-01T00:29:14;93870.19;;;10.27
73662;BMP280;61956;52.540;13.382;2023-04-01T00:31:43;94173.91;;;10.30
73662;BMP280;61956;52.540;13.382;2023-04-01T00:34:14;93871.66;;;10.28
73662;BMP280;61956;52.540;13.382;2023-04-01T00:36:43;94215.31;;;10.30
73662;BMP280;61956;52.540;13.382;2023-04-01T00:39:15;93798.91;;;10.26
73662;BMP280;61956;52.540;13.382;2023-04-01T00:41:44;95018.88;;;10.34
73662;BMP280;61956;52.540;13.382;2023-04-01T00:44:20;94893.94;;;10.34
73662;BMP280;61956;52.540;13.382;2023-04-01T00:46:52;94502.84;;;10.32
73662;BMP280;61956;52.540;13.382;2023-04-01T00:49:23;94672.50;;;10.33
73662;BMP280;61956;52.540;13.382;2023-04-01T00:51:56;94805.22;;;10.33
73662;BMP280;61956;52.540;13.382;2023-04-01T00:54:30;95318.38;;;10.37
73662;BMP280;61956;52.540;13.382;2023-04-01T00:57:05;95210.03;;;10.36
73662;BMP280;61956;52.540;13.382;2023-04-01T00:59:42;94615.59;;;10.33
73662;BMP280;61956;52.540;13.382;2023-04-01T01:02:15;95115.38;;;10.35
73662;BMP280;61956;52.540;13.382;2023-04-01T01:04:45;95159.75;;;10.37
73662;BMP280;61956;52.540;13.382;2023-04-01T01:07:21;94648.09;;;10.34
73662;BMP280;61956;52.540;13.382;2023-04-01T01:10:04;94557.19;;;10.32
73662;BMP280;61956;52.540;13.382;2023-04-01T01:12:43;94654.41;;;10.33
73662;BMP280;61956;52.540;13.382;2023-04-01T01:15:20;94848.09;;;10.34
73662;BMP280;61956;52.540;13.382;2023-04-01T01:17:58;95147.91;;;10.36
73662;BMP280;61956;52.540;13.382;2023-04-01T01:20:53;94857.72;;;10.34
73662;BMP280;61956;52.540;13.382;2023-04-01T01:24:08;94841.44;;;10.33
73662;BMP280;61956;52.540;13.382;2023-04-01T01:27:09;95105.03;;;10.35
73662;BMP280;61956;52.540;13.382;2023-04-01T01:30:09;95066.22;;;10.35
73662;BMP280;61956;52.540;13.382;2023-04-01T01:36:02;95195.22;;;10.36
73662;BMP280;61956;52.540;13.382;2023-04-01T01:38:36;94920.53;;;10.34
73662;BMP280;61956;52.540;13.382;2023-04-01T01:41:07;94478.09;;;10.31
73662;BMP280;61956;52.540;13.382;2023-04-01T01:43:41;94746.78;;;10.32
73662;BMP280;61956;52.540;13.382;2023-04-01T01:46:18;94765.28;;;10.31
73662;BMP280;61956;52.540;13.382;2023-04-01T01:48:52;94983.78;;;10.33
73662;BMP280;61956;52.540;13.382;2023-04-01T01:51:27;94705.03;;;10.30
73662;BMP280;61956;52.540;13.382;2023-04-01T01:53:57;95037.38;;;10.33
73662;BMP280;61956;52.540;13.382;2023-04-01T01:56:28;94885.06;;;10.31
73662;BMP280;61956;52.540;13.382;2023-04-01T01:59:02;94989.28;;;10.32
73662;BMP280;61956;52.540;13.382;2023-04-01T02:01:37;94944.91;;;10.30
73662;BMP280;61956;52.540;13.382;2023-04-01T02:04:13;94881.72;;;10.31
73662;BMP280;61956;52.540;13.382;2023-04-01T02:06:51;95521.72;;;10.35
73662;BMP280;61956;52.540;13.382;2023-04-01T02:09:24;95423.38;;;10.35
73662;BMP280;61956;52.540;13.382;2023-04-01T02:11:57;95256.25;;;10.34
73662;BMP280;61956;52.540;13.382;2023-04-01T02:14:39;95419.28;;;10.34
73662;BMP280;61956;52.540;13.382;2023-04-01T02:17:14;94732.75;;;10.30
73662;BMP280;61956;52.540;13.382;2023-04-01T02:19:48;94041.69;;;10.24
73662;BMP280;61956;52.540;13.382;2023-04-01T02:22:28;93418.13;;;10.18
73662;BMP280;61956;52.540;13.382;2023-04-01T02:25:05;93294.84;;;10.15
73662;BMP280;61956;52.540;13.382;2023-04-01T02:27:40;93618.38;;;10.17
73662;BMP280;61956;52.540;13.382;2023-04-01T02:30:14;94128.19;;;10.19
73662;BMP280;61956;52.540;13.382;2023-04-01T02:32:45;94031.75;;;10.19
73662;BMP280;61956;52.540;13.382;2023-04-01T02:35:17;94032.16;;;10.17
73662;BMP280;61956;52.540;13.382;2023-04-01T02:37:50;94219.84;;;10.18
73662;BMP280;61956;52.540;13.382;2023-04-01T02:40:21;94533.94;;;10.21
73662;BMP280;61956;52.540;13.382;2023-04-01T02:42:51;94653.66;;;10.22
73662;BMP280;61956;52.540;13.382;2023-04-01T02:45:20;94480.69;;;10.20
73662;BMP280;61956;52.540;13.382;2023-04-01T02:47:50;94686.56;;;10.21
73662;BMP280;61956;52.540;13.382;2023-04-01T02:50:19;94773.78;;;10.21
73662;BMP280;61956;52.540;13.382;2023-04-01T02:52:51;94722.03;;;10.21
73662;BMP280;61956;52.540;13.382;2023-04-01T02:55:20;94668.81;;;10.19
73662;BMP280;61956;52.540;13.382;2023-04-01T02:57:50;94990.72;;;10.22
73662;BMP280;61956;52.540;13.382;2023-04-01T03:00:19;95256.91;;;10.24
73662;BMP280;61956;52.540;13.382;2023-04-01T03:02:48;95254.31;;;10.24
73662;BMP280;61956;52.540;13.382;2023-04-01T03:05:18;95231.75;;;10.24
73662;BMP280;61956;52.540;13.382;2023-04-01T03:07:47;94825.91;;;10.23
73662;BMP280;61956;52.540;13.382;2023-04-01T03:10:19;95286.09;;;10.24
73662;BMP280;61956;52.540;13.382;2023-04-01T03:12:49;95585.56;;;10.27
73662;BMP280;61956;52.540;13.382;2023-04-01T03:15:18;95406.25;;;10.27
73662;BMP280;61956;52.540;13.382;2023-04-01T03:17:47;95446.94;;;10.26
73662;BMP280;61956;52.540;13.382;2023-04-01T03:20:17;95574.47;;;10.27
73662;BMP280;61956;52.540;13.382;2023-04-01T03:22:46;95233.28;;;10.25
73662;BMP280;61956;52.540;13.382;2023-04-01T03:25:16;95610.72;;;10.27
73662;BMP280;61956;52.540;13.382;2023-04-01T03:27:48;95097.94;;;10.25
73662;BMP280;61956;52.540;13.382;2023-04-01T03:30:17;95198.88;;;10.25
73662;BMP280;61956;52.540;13.382;2023-04-01T03:32:50;95298.69;;;10.26
73662;BMP280;61956;52.540;13.382;2023-04-01T03:35:19;95722.75;;;10.27
73662;BMP280;61956;52.540;13.382;2023-04-01T03:37:50;95624.38;;;10.27
73662;BMP280;61956;52.540;13.382;2023-04-01T03:40:23;95389.28;;;10.26
73662;BMP280;61956;52.540;13.382;2023-04-01T03:42:53;95427.34;;;10.25
73662;BMP280;61956;52.540;13.382;2023-04-01T03:45:23;95607.41;;;10.26
73662;BMP280;61956;52.540;13.382;2023-04-01T03:47:52;95352.31;;;10.25
73662;BMP280;61956;52.540;13.382;2023-04-01T03:50:21;95746.81;;;10.28
73662;BMP280;61956;52.540;13.382;2023-04-01T03:52:51;96130.28;;;10.30
73662;BMP280;61956;52.540;13.382;2023-04-01T03:55:23;95696.13;;;10.27
73662;BMP280;61956;52.540;13.382;2023-04-01T03:57:52;96473.97;;;10.33
73662;BMP280;61956;52.540;13.382;2023-04-01T04:00:21;96072.28;;;10.31
73662;BMP280;61956;52.540;13.382;2023-04-01T04:02:54;96189.50;;;10.31
73662;BMP280;61956;52.540;13.382;2023-04-01T04:05:29;96339.34;;;10.33
73662;BMP280;61956;52.540;13.382;2023-04-01T04:07:59;96243.56;;;10.33
73662;BMP280;61956;52.540;13.382;2023-04-01T04:10:33;96341.16;;;10.32
73662;BMP280;61956;52.540;13.382;2023-04-01T04:13:02;96649.38;;;10.36
73662;BMP280;61956;52.540;13.382;2023-04-01T04:15:36;96476.97;;;10.35
73662;BMP280;61956;52.540;13.382;2023-04-01T04:18:07;95796.03;;;10.31
73662;BMP280;61956;52.540;13.382;2023-04-01T04:20:36;95922.56;;;10.33
73662;BMP280;61956;52.540;13.382;2023-04-01T04:23:06;96108.94;;;10.33
73662;BMP280;61956;52.540;13.382;2023-04-01T04:25:38;96370.81;;;10.35
73662;BMP280;61956;52.540;13.382;2023-04-01T04:28:08;96489.91;;;10.35
73662;BMP280;61956;52.540;13.382;2023-04-01T04:30:37;96267.25;;;10.35
73662;BMP280;61956;52.540;13.382;2023-04-01T04:33:06;96102.66;;;10.34
73662;BMP280;61956;52.540;13.382;2023-04-01T04:35:36;96503.63;;;10.35
73662;BMP280;61956;52.540;13.382;2023-04-01T04:38:06;96523.25;;;10.36
73662;BMP280;61956;52.540;13.382;2023-04-01T04:40:39;96515.47;;;10.36
73662;BMP280;61956;52.540;13.382;2023-04-01T04:43:11;96407.47;;;10.37
73662;BMP280;61956;52.540;13.382;2023-04-01T04:45:42;96686.06;;;10.38
73662;BMP280;61956;52.540;13.382;2023-04-01T04:48:13;96559.50;;;10.36
73662;BMP280;61956;52.540;13.382;2023-04-01T04:50:47;96558.44;;;10.37
73662;BMP280;61956;52.540;13.382;2023-04-01T04:53:19;96450.75;;;10.36
73662;BMP280;61956;52.540;13.382;2023-04-01T04:55:51;96609.13;;;10.38
73662;BMP280;61956;52.540;13.382;2023-04-01T04:58:47;96450.75;;;10.36
73662;BMP280;61956;52.540;13.382;2023-04-01T05:01:21;96593.91;;;10.37
73662;BMP280;61956;52.540;13.382;2023-04-01T05:03:51;96481.81;;;10.36
73662;BMP280;61956;52.540;13.382;2023-04-01T05:06:20;96644.63;;;10.38
73662;BMP280;61956;52.540;13.382;2023-04-01T05:08:51;96467.81;;;10.37
73662;BMP280;61956;52.540;13.382;2023-04-01T05:11:24;96582.50;;;10.38
73662;BMP280;61956;52.540;13.382;2023-04-01T05:13:54;96545.50;;;10.37
73662;BMP280;61956;52.540;13.382;2023-04-01T05:16:24;96596.50;;;10.37
73662;BMP280;61956;52.540;13.382;2023-04-01T05:18:53;96433.38;;;10.37
73662;BMP280;61956;52.540;13.382;2023-04-01T05:21:24;96456.66;;;10.37
73662;BMP280;61956;52.540;13.382;2023-04-01T05:23:55;96820.38;;;10.39
73662;BMP280;61956;52.540;13.382;2023-04-01T05:26:27;96570.59;;;10.37
73662;BMP280;61956;52.540;13.382;2023-04-01T05:28:58;96424.84;;;10.36
73662;BMP280;61956;52.540;13.382;2023-04-01T05:31:29;96704.94;;;10.38
73662;BMP280;61956;52.540;13.382;2023-04-01T05:34:00;96203.28;;;10.35
73662;BMP280;61956;52.540;13.382;2023-04-01T05:36:29;96400.78;;;10.36
73662;BMP280;61956;52.540;13.382;2023-04-01T05:38:58;96588.72;;;10.37
73662;BMP280;61956;52.540;13.382;2023-04-01T05:41:31;96799.69;;;10.39
73662;BMP280;61956;52.540;13.382;2023-04-01T05:44:03;97325.56;;;10.43
73662;BMP280;61956;52.540;13.382;2023-04-01T05:46:39;97660.69;;;10.47
73662;BMP280;61956;52.540;13.382;2023-04-01T05:49:17;97677.00;;;10.48
73662;BMP280;61956;52.540;13.382;2023-04-01T05:51:47;98062.47;;;10.51
73662;BMP280;61956;52.540;13.382;2023-04-01T05:54:17;98255.47;;;10.53
73662;BMP280;61956;52.540;13.382;2023-04-01T05:56:49;97917.81;;;10.53
73662;BMP280;61956;52.540;13.382;2023-04-01T05:59:19;97983.38;;;10.53
73662;BMP280;61956;52.540;13.382;2023-04-01T06:01:49;97707.94;;;10.53
73662;BMP280;61956;52.540;13.382;2023-04-01T06:04:19;97470.22;;;10.50
73662;BMP280;61956;52.540;13.382;2023-04-01T06:06:49;97630.53;;;10.51
73662;BMP280;61956;52.540;13.382;2023-04-01T06:09:21;97619.09;;;10.52
73662;BMP280;61956;52.540;13.382;2023-04-01T06:12:23;97402.84;;;10.50
73662;BMP280;61956;52.540;13.382;2023-04-01T06:15:12;97582.81;;;10.52
73662;BMP280;61956;52.540;13.382;2023-04-01T06:18:03;97383.63;;;10.51
73662;BMP280;61956;52.540;13.382;2023-04-01T06:20:52;96994.16;;;10.47
73662;BMP280;61956;52.540;13.382;2023-04-01T06:23:45;96728.78;;;10.44
73662;BMP280;61956;52.540;13.382;2023-04-01T06:26:30;96785.75;;;10.44
73662;BMP280;61956;52.540;13.382;2023-04-01T06:29:28;96882.34;;;10.45
73662;BMP280;61956;52.540;13.382;2023-04-01T06:32:27;97479.78;;;10.49
73662;BMP280;61956;52.540;13.382;2023-04-01T06:35:24;97302.13;;;10.48
73662;BMP280;61956;52.540;13.382;2023-04-01T06:38:25;97951.50;;;10.53
73662;BMP280;61956;52.540;13.382;2023-04-01T06:41:26;97868.59;;;10.53
73662;BMP280;61956;52.540;13.382;2023-04-01T06:44:23;97918.59;;;10.53
73662;BMP280;61956;52.540;13.382;2023-04-01T06:47:29;98547.22;;;10.59
73662;BMP280;61956;52.540;13.382;2023-04-01T06:50:47;98440.94;;;10.59
73662;BMP280;61956;52.540;13.382;2023-04-01T06:54:03;98463.97;;;10.61
73662;BMP280;61956;52.540;13.382;2023-04-01T06:57:00;98830.50;;;10.65
73662;BMP280;61956;52.540;13.382;2023-04-01T06:59:37;98538.13;;;10.62
73662;BMP280;61956;52.540;13.382;2023-04-01T07:02:19;99159.50;;;10.66
73662;BMP280;61956;52.540;13.382;2023-04-01T07:04:57;100050.94;;;10.76
73662;BMP280;61956;52.540;13.382;2023-04-01T07:07:33;99935.50;;;10.79
73662;BMP280;61956;52.540;13.382;2023-04-01T07:10:13;99640.06;;;10.77
73662;BMP280;61956;52.540;13.382;2023-04-01T07:12:56;99613.34;;;10.77
73662;BMP280;61956;52.540;13.382;2023-04-01T07:16:07;98987.84;;;10.75
73662;BMP280;61956;52.540;13.382;2023-04-01T07:18:46;98786.59;;;10.74
73662;BMP280;61956;52.540;13.382;2023-04-01T07:21:25;98738.41;;;10.73
73662;BMP280;61956;52.540;13.382;2023-04-01T07:24:03;98484.88;;;10.70
73662;BMP280;61956;52.540;13.382;2023-04-01T07:26:39;98736.06;;;10.71
73662;BMP280;61956;52.540;13.382;2023-04-01T07:29:18;99504.16;;;10.78
73662;BMP280;61956;52.540;13.382;2023-04-01T07:32:12;100182.84;;;10.84
73662;BMP280;61956;52.540;13.382;2023-04-01T07:35:11;99872.28;;;10.85
73662;BMP280;61956;52.540;13.382;2023-04-01T07:37:56;99854.88;;;10.85
73662;BMP280;61956;52.540;13.382;2023-04-01T07:40:40;99932.50;;;10.87
73662;BMP280;61956;52.540;13.382;2023-04-01T07:46:41;101713.78;;;11.06
73662;BMP280;61956;52.540;13.382;2023-04-01T07:49:31;102297.00;;;11.15
73662;BMP280;61956;52.540;13.382;2023-04-01T07:52:36;101333.22;;;11.10
73662;BMP280;61956;52.540;13.382;2023-04-01T07:55:24;102170.31;;;11.17
73662;BMP280;61956;52.540;13.382;2023-04-01T07:58:04;101501.41;;;11.14
73662;BMP280;61956;52.540;13.382;2023-04-01T08:00:50;101595.47;;;11.17
73662;BMP280;61956;52.540;13.382;2023-04-01T08:03:43;102127.41;;;11.21
73662;BMP280;61956;52.540;13.382;2023-04-01T08:06:39;100949.31;;;11.13
73662;BMP280;61956;52.540;13.382;2023-04-01T08:09:26;100340.69;;;11.09
73662;BMP280;61956;52.540;13.382;2023-04-01T08:12:35;99355.78;;;11.02
73662;BMP280;61956;52.540;13.382;2023-04-01T08:16:08;98515.88;;;10.94
73662;BMP280;61956;52.540;13.382;2023-04-01T08:18:56;97237.97;;;10.83
73662;BMP280;61956;52.540;13.382;2023-04-01T08:21:43;96429.13;;;10.73
73662;BMP280;61956;52.540;13.382;2023-04-01T08:24:22;96580.34;;;10.68
73662;BMP280;61956;52.540;13.382;2023-04-01T08:27:00;96955.72;;;10.70
73662;BMP280;61956;52.540;13.382;2023-04-01T08:29:38;98574.41;;;10.81
73662;BMP280;61956;52.540;13.382;2023-04-01T08:32:15;97108.59;;;10.70
73662;BMP280;61956;52.540;13.382;2023-04-01T08:34:57;98178.59;;;10.76
73662;BMP280;61956;52.540;13.382;2023-04-01T08:37:41;98596.72;;;10.82
73662;BMP280;61956;52.540;13.382;2023-04-01T08:40:39;99387.44;;;10.88
73662;BMP280;61956;52.540;13.382;2023-04-01T08:43:34;99465.25;;;10.88
73662;BMP280;61956;52.540;13.382;2023-04-01T08:46:32;97733.47;;;10.77
73662;BMP280;61956;52.540;13.382;2023-04-01T08:53:07;97992.53;;;10.73
73662;BMP280;61956;52.540;13.382;2023-04-01T08:55:54;100260.75;;;10.89
73662;BMP280;61956;52.540;13.382;2023-04-01T08:58:50;100462.44;;;10.94
73662;BMP280;61956;52.540;13.382;2023-04-01T09:02:00;101463.72;;;11.05
73662;BMP280;61956;52.540;13.382;2023-04-01T09:05:24;99703.94;;;10.94
73662;BMP280;61956;52.540;13.382;2023-04-01T09:08:18;100912.94;;;11.02
73662;BMP280;61956;52.540;13.382;2023-04-01T09:11:06;100907.31;;;11.05
73662;BMP280;61956;52.540;13.382;2023-04-01T09:17:51;100346.03;;;11.03
73662;BMP280;61956;52.540;13.382;2023-04-01T09:21:10;100502.34;;;11.05
73662;BMP280;61956;52.540;13.382;2023-04-01T09:24:18;100435.94;;;11.09
73662;BMP280;61956;52.540;13.382;2023-04-01T09:27:04;99944.81;;;11.02
73662;BMP280;61956;52.540;13.382;2023-04-01T09:30:01;98291.16;;;10.89
73662;BMP280;61956;52.540;13.382;2023-04-01T09:33:04;97026.69;;;10.77
73662;BMP280;61956;52.540;13.382;2023-04-01T09:36:03;100323.41;;;10.98
73662;BMP280;61956;52.540;13.382;2023-04-01T09:38:56;100873.09;;;11.08
73662;BMP280;61956;52.540;13.382;2023-04-01T09:41:34;98983.25;;;10.96
73662;BMP280;61956;52.540;13.382;2023-04-01T09:44:33;99843.09;;;11.00
73662;BMP280;61956;52.540;13.382;2023-04-01T09:47:23;98901.06;;;10.91
73662;BMP280;61956;52.540;13.382;2023-04-01T09:50:20;97145.91;;;10.77
73662;BMP280;61956;52.540;13.382;2023-04-01T09:53:11;97923.66;;;10.81
73662;BMP280;61956;52.540;13.382;2023-04-01T09:56:19;96573.78;;;10.71
73662;BMP280;61956;52.540;13.382;2023-04-01T09:59:24;94881.41;;;10.57
73662;BMP280;61956;52.540;13.382;2023-04-01T10:03:02;95839.28;;;10.54
73662;BMP280;61956;52.540;13.382;2023-04-01T10:10:03;94172.00;;;10.37
73662;BMP280;61956;52.540;13.382;2023-04-01T10:16:39;95788.09;;;10.43
73662;BMP280;61956;52.540;13.382;2023-04-01T10:19:51;95273.63;;;10.37
73662;BMP280;61956;52.540;13.382;2023-04-01T10:23:02;94382.72;;;10.29
73662;BMP280;61956;52.540;13.382;2023-04-01T10:26:13;95956.66;;;10.38
73662;BMP280;61956;52.540;13.382;2023-04-01T10:29:59;93644.91;;;10.22
73662;BMP280;61956;52.540;13.382;2023-04-01T10:33:21;95847.81;;;10.31
73662;BMP280;61956;52.540;13.382;2023-04-01T10:40:06;94697.66;;;10.22
73662;BMP280;61956;52.540;13.382;2023-04-01T10:43:52;95480.22;;;10.28
73662;BMP280;61956;52.540;13.382;2023-04-01T10:47:04;94303.41;;;10.15
73662;BMP280;61956;52.540;13.382;2023-04-01T10:50:16;91859.91;;;9.99
73662;BMP280;61956;52.540;13.382;2023-04-01T10:53:33;93441.72;;;10.04
73662;BMP280;61956;52.540;13.382;2023-04-01T10:56:46;95270.50;;;10.13
73662;BMP280;61956;52.540;13.382;2023-04-01T11:03:26;94596.03;;;10.10
73662;BMP280;61956;52.540;13.382;2023-04-01T11:07:01;96555.09;;;10.25
73662;BMP280;61956;52.540;13.382;2023-04-01T11:17:17;93274.25;;;9.95
73662;BMP280;61956;52.540;13.382;2023-04-01T11:20:36;94412.81;;;10.02
73662;BMP280;61956;52.540;13.382;2023-04-01T11:23:45;96127.00;;;10.13
73662;BMP280;61956;52.540;13.382;2023-04-01T11:26:32;93863.91;;;10.01
73662;BMP280;61956;52.540;13.382;2023-04-01T11:29:47;94684.00;;;10.03
73662;BMP280;61956;52.540;13.382;2023-04-01T11:32:42;95463.72;;;10.09
73662;BMP280;61956;52.540;13.382;2023-04-01T11:35:36;95953.94;;;10.12
73662;BMP280;61956;52.540;13.382;2023-04-01T11:38:28;94901.25;;;10.07
73662;BMP280;61956;52.540;13.382;2023-04-01T11:41:34;93911.28;;;9.94
73662;BMP280;61956;52.540;13.382;2023-04-01T11:44:51;93691.19;;;9.92
73662;BMP280;61956;52.540;13.382;2023-04-01T11:47:52;92445.47;;;9.83
73662;BMP280;61956;52.540;13.382;2023-04-01T11:50:40;93675.75;;;9.89
73662;BMP280;61956;52.540;13.382;2023-04-01T11:53:32;92206.97;;;9.77
73662;BMP280;61956;52.540;13.382;2023-04-01T11:56:20;92341.41;;;9.74
73662;BMP280;61956;52.540;13.382;2023-04-01T11:59:23;91183.22;;;9.63
73662;BMP280;61956;52.540;13.382;2023-04-01T12:02:11;92829.34;;;9.72
73662;BMP280;61956;52.540;13.382;2023-04-01T12:04:58;91295.81;;;9.61
73662;BMP280;61956;52.540;13.382;2023-04-01T12:07:54;90631.53;;;9.53
73662;BMP280;61956;52.540;13.382;2023-04-01T12:10:39;92500.81;;;9.64
73662;BMP280;61956;52.540;13.382;2023-04-01T12:13:30;91768.00;;;9.59
73662;BMP280;61956;52.540;13.382;2023-04-01T12:16:15;92271.06;;;9.60
73662;BMP280;61956;52.540;13.382;2023-04-01T12:18:55;91883.16;;;9.56
73662;BMP280;61956;52.540;13.382;2023-04-01T12:21:36;92601.63;;;9.60
73662;BMP280;61956;52.540;13.382;2023-04-01T12:24:35;91340.28;;;9.50
73662;BMP280;61956;52.540;13.382;2023-04-01T12:27:31;91433.63;;;9.48
73662;BMP280;61956;52.540;13.382;2023-04-01T12:30:24;93564.00;;;9.61
73662;BMP280;61956;52.540;13.382;2023-04-01T12:33:23;91969.69;;;9.52
73662;BMP280;61956;52.540;13.382;2023-04-01T12:36:13;91800.91;;;9.49
73662;BMP280;61956;52.540;13.382;2023-04-01T12:39:23;93389.09;;;9.58
73662;BMP280;61956;52.540;13.382;2023-04-01T12:42:07;93644.81;;;9.62
73662;BMP280;61956;52.540;13.382;2023-04-01T12:45:04;92995.41;;;9.56
73662;BMP280;61956;52.540;13.382;2023-04-01T12:48:25;90197.41;;;9.35
73662;BMP280;61956;52.540;13.382;2023-04-01T12:51:33;90642.28;;;9.34
73662;BMP280;61956;52.540;13.382;2023-04-01T12:54:44;92402.25;;;9.43
73662;BMP280;61956;52.540;13.382;2023-04-01T12:57:38;92498.50;;;9.44
73662;BMP280;61956;52.540;13.382;2023-04-01T13:00:32;93587.75;;;9.53
73662;BMP280;61956;52.540;13.382;2023-04-01T13:03:43;92653.72;;;9.46
73662;BMP280;61956;52.540;13.382;2023-04-01T13:06:44;92001.41;;;9.43
73662;BMP280;61956;52.540;13.382;2023-04-01T13:09:34;92256.25;;;9.42
73662;BMP280;61956;52.540;13.382;2023-04-01T13:12:29;92289.09;;;9.42
73662;BMP280;61956;52.540;13.382;2023-04-01T13:15:19;91971.00;;;9.38
73662;BMP280;61956;52.540;13.382;2023-04-01T13:18:03;89985.28;;;9.23
73662;BMP280;61956;52.540;13.382;2023-04-01T13:20:45;90644.34;;;9.25
73662;BMP280;61956;52.540;13.382;2023-04-01T13:23:33;91555.53;;;9.29
73662;BMP280;61956;52.540;13.382;2023-04-01T13:26:19;90031.06;;;9.17
73662;BMP280;61956;52.540;13.382;2023-04-01T13:28:59;91175.03;;;9.24
73662;BMP280;61956;52.540;13.382;2023-04-01T13:31:48;90728.28;;;9.20
73662;BMP280;61956;52.540;13.382;2023-04-01T13:34:36;92342.66;;;9.29
73662;BMP280;61956;52.540;13.382;2023-04-01T13:37:25;89121.19;;;9.06
73662;BMP280;61956;52.540;13.382;2023-04-01T13:40:26;89712.63;;;9.05
73662;BMP280;61956;52.540;13.382;2023-04-01T13:43:12;90854.38;;;9.12
73662;BMP280;61956;52.540;13.382;2023-04-01T13:46:02;91421.66;;;9.16
73662;BMP280;61956;52.540;13.382;2023-04-01T13:49:04;88919.44;;;8.98
73662;BMP280;61956;52.540;13.382;2023-04-01T13:52:00;88791.63;;;8.95
73662;BMP280;61956;52.540;13.382;2023-04-01T13:58:04;88970.41;;;8.92
73662;BMP280;61956;52.540;13.382;2023-04-01T14:01:03;90531.97;;;9.01
73662;BMP280;61956;52.540;13.382;2023-04-01T14:03:43;91078.44;;;9.05
73662;BMP280;61956;52.540;13.382;2023-04-01T14:06:40;90649.41;;;9.02
73662;BMP280;61956;52.540;13.382;2023-04-01T14:09:45;89539.84;;;8.92
73662;BMP280;61956;52.540;13.382;2023-04-01T14:12:30;91134.66;;;9.00
73662;BMP280;61956;52.540;13.382;2023-04-01T14:15:48;90813.97;;;8.98
73662;BMP280;61956;52.540;13.382;2023-04-01T14:18:37;88989.25;;;8.87
73662;BMP280;61956;52.540;13.382;2023-04-01T14:21:26;86297.81;;;8.65
73662;BMP280;61956;52.540;13.382;2023-04-01T14:24:31;86471.34;;;8.62
73662;BMP280;61956;52.540;13.382;2023-04-01T14:27:24;87006.56;;;8.62
73662;BMP280;61956;52.540;13.382;2023-04-01T14:30:20;88262.03;;;8.69
73662;BMP280;61956;52.540;13.382;2023-04-01T14:33:20;87115.19;;;8.60
73662;BMP280;61956;52.540;13.382;2023-04-01T14:36:18;88518.69;;;8.66
73662;BMP280;61956;52.540;13.382;2023-04-01T14:39:18;87547.47;;;8.58
73662;BMP280;61956;52.540;13.382;2023-04-01T14:42:13;88715.41;;;8.63
73662;BMP280;61956;52.540;13.382;2023-04-01T14:48:17;91103.25;;;8.82
73662;BMP280;61956;52.540;13.382;2023-04-01T14:50:55;88253.09;;;8.62
73662;BMP280;61956;52.540;13.382;2023-04-01T14:53:36;91537.81;;;8.83
73662;BMP280;61956;52.540;13.382;2023-04-01T14:56:11;90288.03;;;8.75
73662;BMP280;61956;52.540;13.382;2023-04-01T14:58:50;90391.13;;;8.75
73662;BMP280;61956;52.540;13.382;2023-04-01T15:01:35;88260.66;;;8.60
73662;BMP280;61956;52.540;13.382;2023-04-01T15:04:34;86001.03;;;8.44
73662;BMP280;61956;52.540;13.382;2023-04-01T15:07:38;86421.41;;;8.41
73662;BMP280;61956;52.540;13.382;2023-04-01T15:10:59;86881.84;;;8.41
73662;BMP280;61956;52.540;13.382;2023-04-01T15:16:55;85151.09;;;8.23
73662;BMP280;61956;52.540;13.382;2023-04-01T15:19:42;85336.09;;;8.21
73662;BMP280;61956;52.540;13.382;2023-04-01T15:22:48;87588.94;;;8.35
73662;BMP280;61956;52.540;13.382;2023-04-01T15:25:42;87012.41;;;8.31
73662;BMP280;61956;52.540;13.382;2023-04-01T15:28:24;86547.88;;;8.26
73662;BMP280;61956;52.540;13.382;2023-04-01T15:31:08;87277.91;;;8.29
73662;BMP280;61956;52.540;13.382;2023-04-01T15:36:58;86196.53;;;8.19
73662;BMP280;61956;52.540;13.382;2023-04-01T15:39:44;85236.75;;;8.10
73662;BMP280;61956;52.540;13.382;2023-04-01T15:42:39;86423.31;;;8.17
73662;BMP280;61956;52.540;13.382;2023-04-01T15:45:31;86400.09;;;8.15
73662;BMP280;61956;52.540;13.382;2023-04-01T15:48:22;86137.09;;;8.13
73662;BMP280;61956;52.540;13.382;2023-04-01T15:51:20;85362.44;;;8.04
73662;BMP280;61956;52.540;13.382;2023-04-01T15:57:28;87440.31;;;8.16
73662;BMP280;61956;52.540;13.382;2023-04-01T16:00:16;87700.81;;;8.17
73662;BMP280;61956;52.540;13.382;2023-04-01T16:06:09;83863.25;;;7.89
73662;BMP280;61956;52.540;13.382;2023-04-01T16:09:02;84215.06;;;7.89
73662;BMP280;61956;52.540;13.382;2023-04-01T16:11:48;84628.53;;;7.89
73662;BMP280;61956;52.540;13.382;2023-04-01T16:14:33;85311.88;;;7.91
73662;BMP280;61956;52.540;13.382;2023-04-01T16:17:22;84854.47;;;7.87
73662;BMP280;61956;52.540;13.382;2023-04-01T16:20:13;84859.56;;;7.85
73662;BMP280;61956;52.540;13.382;2023-04-01T16:22:53;85958.69;;;7.90
73662;BMP280;61956;52.540;13.382;2023-04-01T16:25:33;84657.22;;;7.81
73662;BMP280;61956;52.540;13.382;2023-04-01T16:28:16;84219.97;;;7.76
73662;BMP280;61956;52.540;13.382;2023-04-01T16:30:57;83785.41;;;7.72
73662;BMP280;61956;52.540;13.382;2023-04-01T16:33:39;84635.19;;;7.74
73662;BMP280;61956;52.540;13.382;2023-04-01T16:36:26;82668.47;;;7.61
73662;BMP280;61956;52.540;13.382;2023-04-01T16:39:22;82732.59;;;7.59